Time;durP1;ratioP1;P1;durP2;ratioP2;P2;SDS_P1;SDS_P2;PMS_P1;PMS_P2;Temp;Humidity;BMP_temperature;BMP_pressure;BME280_temperature;BME280_humidity;BME280_pressure;Samples;Min_cycle;Max_cycle;Signal;HPM_P1;HPM_P2
2023/04/12 00:04:33;;;;;;;;;;;;;;;8.32;100.00;97225.78;18301438;32;19969;-57
2023/04/12 00:14:35;;;;;;;;;;;;;;;8.30;100.00;97200.19;18300696;32;19945;-57
2023/04/12 00:24:38;;;;;;;;;;;;;;;8.21;100.00;97174.84;18286584;32;19949;-57
2023/04/12 00:34:41;;;;;;;;;;;;;;;8.13;100.00;97166.22;18299722;32;19980;-57
2023/04/12 00:44:43;;;;;;;;;;;;;;;8.10;100.00;97131.75;18298868;32;19993;-57
2023/04/12 00:54:46;;;;;;;;;;;;;;;8.05;100.00;97114.78;18298130;32;20329;-57
2023/04/12 01:04:50;;;;;;;;;;;;;;;8.01;100.00;97079.50;18285164;32;19986;-57
2023/04/12 01:15:07;;;;;;;;;;;;;;;7.97;100.00;97064.94;18297766;32;19953;-57
2023/04/12 01:25:22;;;;;;;;;;;;;;;7.97;100.00;97054.19;18297382;32;19990;-57
2023/04/12 01:35:29;;;;;;;;;;;;;;;7.98;100.00;97047.72;18296499;32;19953;-56
2023/04/12 01:45:32;;;;;;;;;;;;;;;7.95;100.00;97045.59;18296508;32;19975;-57
2023/04/12 01:55:36;;;;;;;;;;;;;;;7.92;100.00;97017.31;18295727;32;19968;-57
2023/04/12 02:05:38;;;;;;;;;;;;;;;7.95;100.00;97021.34;18295498;32;20362;-57
2023/04/12 02:15:41;;;;;;;;;;;;;;;7.91;100.00;97004.94;18295276;32;20358;-57
2023/04/12 02:25:45;;;;;;;;;;;;;;;7.91;100.00;96983.41;18294779;32;19954;-57
2023/04/12 02:35:47;;;;;;;;;;;;;;;7.94;100.00;96965.91;18293810;32;19995;-57
2023/04/12 02:45:50;;;;;;;;;;;;;;;8.04;100.00;96959.69;18294404;32;20290;-57
2023/04/12 02:55:52;;;;;;;;;;;;;;;7.92;100.00;96935.72;18293517;32;19957;-57
2023/04/12 03:05:54;;;;;;;;;;;;;;;7.88;100.00;96910.44;18293193;32;20253;-57
2023/04/12 03:15:57;;;;;;;;;;;;;;;7.89;100.00;96904.00;18282467;32;19969;-57
2023/04/12 03:26:00;;;;;;;;;;;;;;;7.90;100.00;96895.62;18289307;32;19985;-57
2023/04/12 03:36:02;;;;;;;;;;;;;;;8.00;100.00;96894.81;18302374;32;19969;-57
2023/04/12 03:46:05;;;;;;;;;;;;;;;7.90;100.00;96884.06;18302226;32;19942;-57
2023/04/12 03:56:07;;;;;;;;;;;;;;;7.92;100.00;96876.53;18301905;32;19950;-57
2023/04/12 04:06:10;;;;;;;;;;;;;;;7.90;100.00;96887.56;18301504;32;19976;-57
2023/04/12 04:16:12;;;;;;;;;;;;;;;7.90;100.00;96873.31;18300519;32;19949;-57
2023/04/12 04:26:15;;;;;;;;;;;;;;;7.86;100.00;96839.94;18299326;32;19991;-57
2023/04/12 04:36:18;;;;;;;;;;;;;;;7.88;100.00;96810.84;18285363;32;19961;-57
2023/04/12 04:46:20;;;;;;;;;;;;;;;7.86;100.00;96813.03;18299461;32;19956;-57
2023/04/12 04:56:23;;;;;;;;;;;;;;;7.88;100.00;96792.84;18298789;32;20309;-57
2023/04/12 05:06:26;;;;;;;;;;;;;;;7.89;100.00;96766.72;18298256;32;19959;-57
2023/04/12 05:16:28;;;;;;;;;;;;;;;7.93;100.00;96771.28;18284012;32;19960;-57
2023/04/12 05:26:32;;;;;;;;;;;;;;;7.98;100.00;96755.09;18283665;32;19957;-57
2023/04/12 05:36:34;;;;;;;;;;;;;;;8.05;100.00;96741.34;18296455;32;20284;-57
2023/04/12 05:46:37;;;;;;;;;;;;;;;8.12;100.00;96741.06;18296958;32;19965;-57
2023/04/12 05:56:40;;;;;;;;;;;;;;;8.16;100.00;96727.84;18295658;32;19967;-57
2023/04/12 06:06:42;;;;;;;;;;;;;;;8.34;100.00;96699.47;18295587;32;19953;-57
2023/04/12 06:16:44;;;;;;;;;;;;;;;8.44;100.00;96694.81;18294930;32;19972;-57
2023/04/12 06:26:47;;;;;;;;;;;;;;;8.60;100.00;96686.66;18295251;32;19954;-57
2023/04/12 06:36:49;;;;;;;;;;;;;;;8.97;100.00;96655.59;18293901;32;19957;-57
2023/04/12 06:46:51;;;;;;;;;;;;;;;9.43;100.00;96663.22;18293889;32;19996;-57
2023/04/12 06:56:56;;;;;;;;;;;;;;;9.93;100.00;96662.06;18303444;32;19986;-57
2023/04/12 07:06:58;;;;;;;;;;;;;;;10.17;100.00;96654.72;18304229;32;19941;-57
2023/04/12 07:17:00;;;;;;;;;;;;;;;10.55;100.00;96635.00;18303478;32;19949;-57
2023/04/12 07:27:03;;;;;;;;;;;;;;;10.92;100.00;96632.47;18303216;32;20374;-57
2023/04/12 07:37:05;;;;;;;;;;;;;;;11.24;100.00;96634.34;18302334;32;19990;-57
2023/04/12 07:47:07;;;;;;;;;;;;;;;11.63;100.00;96635.72;18302037;32;19953;-57
2023/04/12 07:57:10;;;;;;;;;;;;;;;11.89;100.00;96607.31;18275041;32;19941;-57
2023/04/12 08:07:13;;;;;;;;;;;;;;;12.05;100.00;96605.91;18301198;32;19964;-57
2023/04/12 08:17:15;;;;;;;;;;;;;;;12.49;100.00;96611.66;18300932;32;19986;-57
2023/04/12 08:27:18;;;;;;;;;;;;;;;13.16;100.00;96616.19;18300154;32;19957;-57
2023/04/12 08:37:20;;;;;;;;;;;;;;;13.08;100.00;96616.94;18299744;32;19998;-58
2023/04/12 08:47:22;;;;;;;;;;;;;;;13.09;100.00;96621.28;18299502;32;19965;-58
2023/04/12 08:57:25;;;;;;;;;;;;;;;12.61;100.00;96609.19;18298657;32;19945;-57
2023/04/12 09:07:29;;;;;;;;;;;;;;;12.32;100.00;96623.97;18298304;32;20265;-57
2023/04/12 09:17:35;;;;;;;;;;;;;;;12.83;100.00;96649.06;18283811;32;19958;-57
2023/04/12 09:27:47;;;;;;;;;;;;;;;12.71;100.00;96692.22;18297417;32;19954;-57
2023/04/12 09:37:57;;;;;;;;;;;;;;;12.46;100.00;96651.03;18282330;32;19982;-57
2023/04/12 09:47:59;;;;;;;;;;;;;;;12.62;100.00;96647.94;18295913;32;19982;-57
2023/04/12 09:58:03;;;;;;;;;;;;;;;13.21;100.00;96634.28;18294939;32;19961;-57
2023/04/12 10:08:06;;;;;;;;;;;;;;;13.81;100.00;96611.13;18295023;32;19965;-57
2023/04/12 10:18:10;;;;;;;;;;;;;;;14.11;100.00;96605.12;18294856;32;19975;-57
2023/04/12 10:28:17;;;;;;;;;;;;;;;14.21;100.00;96602.88;18300700;32;20333;-57
2023/04/12 10:38:26;;;;;;;;;;;;;;;14.15;100.00;96590.56;18305367;32;19953;-57
2023/04/12 10:48:33;;;;;;;;;;;;;;;14.54;100.00;96572.47;18304938;32;19949;-57
2023/04/12 10:58:48;;;;;;;;;;;;;;;14.88;100.00;96565.38;18304427;32;19950;-57
2023/04/12 11:08:55;;;;;;;;;;;;;;;15.27;100.00;96553.69;18290243;32;19949;-57
2023/04/12 11:18:59;;;;;;;;;;;;;;;16.12;97.16;96555.41;18304095;32;19953;-57
2023/04/12 11:29:06;;;;;;;;;;;;;;;16.33;85.98;96540.94;18303143;32;19985;-57
2023/04/12 11:39:09;;;;;;;;;;;;;;;16.27;77.42;96534.91;18301944;32;20338;-57
2023/04/12 11:49:16;;;;;;;;;;;;;;;16.32;81.78;96514.78;18302159;32;19954;-57
2023/04/12 11:59:18;;;;;;;;;;;;;;;16.64;80.12;96499.53;18302189;32;20238;-57
2023/04/12 12:09:21;;;;;;;;;;;;;;;17.12;76.11;96502.69;18301466;32;19942;-58
2023/04/12 12:19:28;;;;;;;;;;;;;;;17.71;74.18;96492.38;18300654;32;19950;-57
2023/04/12 12:29:34;;;;;;;;;;;;;;;17.22;75.14;96487.78;18300096;32;19973;-57
2023/04/12 12:39:36;;;;;;;;;;;;;;;17.35;71.06;96480.34;18285710;32;20341;-57
2023/04/12 12:49:39;;;;;;;;;;;;;;;17.61;63.77;96485.47;18298469;32;19937;-57
2023/04/12 12:59:41;;;;;;;;;;;;;;;17.34;66.54;96486.97;18298512;32;19956;-57
2023/04/12 13:09:44;;;;;;;;;;;;;;;17.17;63.89;96477.91;18298271;32;20283;-57
2023/04/12 13:19:47;;;;;;;;;;;;;;;16.96;67.60;96479.94;18297588;32;20013;-57
2023/04/12 13:29:49;;;;;;;;;;;;;;;16.45;66.18;96494.63;18283973;32;20344;-57
2023/04/12 13:39:52;;;;;;;;;;;;;;;16.24;81.11;96495.47;18296527;32;19962;-57
2023/04/12 13:49:54;;;;;;;;;;;;;;;15.87;91.93;96484.41;18296624;32;20276;-57
2023/04/12 13:59:57;;;;;;;;;;;;;;;15.52;82.97;96472.94;18295368;32;19972;-57
2023/04/12 14:09:59;;;;;;;;;;;;;;;15.75;80.78;96444.22;18281836;32;19989;-57
2023/04/12 14:20:05;;;;;;;;;;;;;;;16.02;77.78;96454.91;18294487;32;19953;-57
2023/04/12 14:30:08;;;;;;;;;;;;;;;15.46;80.40;96469.63;18295052;32;19972;-57
2023/04/12 14:40:10;;;;;;;;;;;;;;;14.81;100.00;96463.59;18293776;32;19957;-57
2023/04/12 14:50:13;;;;;;;;;;;;;;;14.60;96.83;96455.34;18280065;32;19949;-57
2023/04/12 15:00:16;;;;;;;;;;;;;;;14.19;96.50;96428.41;18293211;32;19953;-57
2023/04/12 15:10:19;;;;;;;;;;;;;;;14.37;100.00;96447.41;18294737;32;19967;-57
2023/04/12 15:20:22;;;;;;;;;;;;;;;13.78;99.01;96456.13;18303489;32;20261;-57
2023/04/12 15:30:24;;;;;;;;;;;;;;;12.86;100.00;96442.25;18289344;32;19946;-57
2023/04/12 15:40:26;;;;;;;;;;;;;;;12.78;100.00;96420.56;18302484;32;19979;-57
2023/04/12 15:50:29;;;;;;;;;;;;;;;12.82;100.00;96427.72;18302168;32;20329;-57
2023/04/12 16:00:32;;;;;;;;;;;;;;;12.66;100.00;96437.41;18287215;32;20328;-57
2023/04/12 16:10:36;;;;;;;;;;;;;;;12.71;100.00;96429.13;18301232;32;19954;-57
2023/04/12 16:20:42;;;;;;;;;;;;;;;12.56;100.00;96454.75;18300590;32;19975;-57
2023/04/12 16:30:44;;;;;;;;;;;;;;;12.24;100.00;96486.50;18300411;32;19962;-57
2023/04/12 16:40:47;;;;;;;;;;;;;;;11.70;100.00;96522.41;18299232;32;20001;-57
2023/04/12 16:50:50;;;;;;;;;;;;;;;10.81;100.00;96521.00;18285732;32;19968;-57
2023/04/12 17:00:52;;;;;;;;;;;;;;;10.20;100.00;96496.66;18298594;32;20358;-57
2023/04/12 17:10:55;;;;;;;;;;;;;;;9.96;100.00;96504.88;18298388;32;19994;-57
2023/04/12 17:20:57;;;;;;;;;;;;;;;9.83;100.00;96568.53;18297727;32;20325;-57
2023/04/12 17:31:00;;;;;;;;;;;;;;;9.61;100.00;96586.09;18297385;32;19997;-56
2023/04/12 17:41:03;;;;;;;;;;;;;;;9.46;100.00;96572.81;18296157;32;20451;-57
2023/04/12 17:51:08;;;;;;;;;;;;;;;9.22;100.00;96562.81;18296430;32;19945;-57
2023/04/12 18:01:11;;;;;;;;;;;;;;;9.01;100.00;96567.66;18295939;32;19981;-57
2023/04/12 18:11:14;;;;;;;;;;;;;;;8.83;100.00;96566.53;18281590;32;19961;-57
2023/04/12 18:21:20;;;;;;;;;;;;;;;8.71;100.00;96552.62;18295066;32;19942;-56
2023/04/12 18:31:22;;;;;;;;;;;;;;;8.61;100.00;96558.94;18294912;32;19961;-56
2023/04/12 18:41:24;;;;;;;;;;;;;;;8.52;100.00;96584.88;18280185;32;19953;-57
2023/04/12 18:51:27;;;;;;;;;;;;;;;8.46;100.00;96573.34;18302364;32;20306;-57
2023/04/12 19:01:29;;;;;;;;;;;;;;;8.44;100.00;96570.91;18290666;32;20313;-56
2023/04/12 19:11:31;;;;;;;;;;;;;;;8.43;100.00;96585.47;18304448;32;19949;-56
2023/04/12 19:21:38;;;;;;;;;;;;;;;8.38;100.00;96592.78;18304092;32;20001;-57
2023/04/12 19:31:42;;;;;;;;;;;;;;;8.21;100.00;96582.41;18289471;32;19959;-56
2023/04/12 19:41:47;;;;;;;;;;;;;;;8.11;100.00;96607.50;18288588;32;19981;-56
2023/04/12 19:51:50;;;;;;;;;;;;;;;8.11;100.00;96631.75;18302212;32;19945;-55
2023/04/12 20:01:54;;;;;;;;;;;;;;;8.29;100.00;96751.47;18287570;32;20028;-55
2023/04/12 20:11:58;;;;;;;;;;;;;;;8.03;100.00;96802.75;18301317;32;20052;-55
2023/04/12 20:22:02;;;;;;;;;;;;;;;7.45;100.00;96824.66;18300717;32;19982;-51
2023/04/12 20:32:05;;;;;;;;;;;;;;;6.76;100.00;96802.59;18286433;32;19976;-53
2023/04/12 20:42:09;;;;;;;;;;;;;;;6.64;100.00;96788.62;18299394;32;19953;-54
2023/04/12 20:52:17;;;;;;;;;;;;;;;6.56;100.00;96787.25;18299233;32;19949;-54
2023/04/12 21:02:20;;;;;;;;;;;;;;;6.38;100.00;96781.31;18284970;32;19937;-55
2023/04/12 21:12:24;;;;;;;;;;;;;;;6.26;100.00;96792.28;18297728;32;20033;-54
2023/04/12 21:22:27;;;;;;;;;;;;;;;6.12;100.00;96799.22;18284229;32;19949;-53
2023/04/12 21:32:31;;;;;;;;;;;;;;;6.09;100.00;96823.88;18283975;32;20022;-54
2023/04/12 21:42:35;;;;;;;;;;;;;;;6.14;100.00;96810.50;18283200;32;19997;-55
2023/04/12 21:52:39;;;;;;;;;;;;;;;6.17;100.00;96820.72;18296521;32;20334;-55
2023/04/12 22:02:43;;;;;;;;;;;;;;;6.17;100.00;96830.66;18282078;32;19985;-54
2023/04/12 22:12:50;;;;;;;;;;;;;;;6.14;100.00;96825.78;18295638;32;19941;-55
2023/04/12 22:22:52;;;;;;;;;;;;;;;6.08;100.00;96841.06;18295233;32;20013;-54
2023/04/12 22:32:56;;;;;;;;;;;;;;;6.14;100.00;96841.88;18294933;32;19957;-55
2023/04/12 22:42:59;;;;;;;;;;;;;;;5.94;100.00;96856.78;18293997;32;19982;-54
2023/04/12 22:53:02;;;;;;;;;;;;;;;5.70;100.00;96851.00;18293975;32;19946;-55
2023/04/12 23:03:09;;;;;;;;;;;;;;;5.47;100.00;96860.22;18293726;32;19957;-54
2023/04/12 23:13:12;;;;;;;;;;;;;;;5.29;100.00;96856.06;18293403;32;20273;-53
2023/04/12 23:23:14;;;;;;;;;;;;;;;5.08;100.00;96861.25;18292738;32;20282;-54
2023/04/12 23:33:18;;;;;;;;;;;;;;;4.84;100.00;96866.16;18296462;32;20329;-54
2023/04/12 23:43:23;;;;;;;;;;;;;;;4.69;100.00;96851.53;18302588;32;19977;-55
2023/04/12 23:53:25;;;;;;;;;;;;;;;4.56;100.00;96851.91;18302223;32;19949;-53
